Time;durP1;ratioP1;P1;durP2;ratioP2;P2;SDS_P1;SDS_P2;PMS_P1;PMS_P2;Temp;Humidity;BMP_temperature;BMP_pressure;BME280_temperature;BME280_humidity;BME280_pressure;Samples;Min_cycle;Max_cycle;Signal;HPM_P1;HPM_P2
2023/08/07 00:02:08;;;;;;;9.85;1.95;;;;;;;;;;5061000;28;20820;-63
2023/08/07 00:04:35;;;;;;;9.55;1.67;;;;;;;;;;5061576;28;20116;-63
2023/08/07 00:07:01;;;;;;;4.20;1.30;;;;;;;;;;5061709;28;20529;-63
2023/08/07 00:09:28;;;;;;;9.38;1.38;;;;;;;;;;5062258;28;20486;-61
2023/08/07 00:11:54;;;;;;;3.58;1.38;;;;;;;;;;5054796;28;20523;-63
2023/08/07 00:14:21;;;;;;;4.78;1.40;;;;;;;;;;5052665;28;20057;-63
2023/08/07 00:16:47;;;;;;;12.25;2.40;;;;;;;;;;5060823;28;20132;-62
2023/08/07 00:19:14;;;;;;;9.00;1.58;;;;;;;;;;5061814;28;20084;-63
2023/08/07 00:21:41;;;;;;;5.38;1.13;;;;;;;;;;5048243;28;20053;-63
2023/08/07 00:24:08;;;;;;;4.03;1.20;;;;;;;;;;5042303;28;20538;-64
2023/08/07 00:26:34;;;;;;;7.43;1.58;;;;;;;;;;5042340;28;20424;-63
2023/08/07 00:29:01;;;;;;;8.80;1.60;;;;;;;;;;5042959;28;20144;-64
2023/08/07 00:31:30;;;;;;;8.40;2.38;;;;;;;;;;5058509;28;20554;-63
2023/08/07 00:33:57;;;;;;;10.40;2.88;;;;;;;;;;5061891;28;20053;-62
2023/08/07 00:36:24;;;;;;;6.35;1.95;;;;;;;;;;5048031;28;20135;-63
2023/08/07 00:38:51;;;;;;;5.85;1.52;;;;;;;;;;5057973;28;20101;-63
2023/08/07 00:41:18;;;;;;;13.63;1.92;;;;;;;;;;5062407;28;20362;-60
2023/08/07 00:43:44;;;;;;;5.97;1.88;;;;;;;;;;5061112;28;20057;-63
2023/08/07 00:46:11;;;;;;;8.13;2.38;;;;;;;;;;5047271;28;20468;-64
2023/08/07 00:48:38;;;;;;;8.73;1.67;;;;;;;;;;5060922;28;20060;-63
2023/08/07 00:51:07;;;;;;;4.75;1.83;;;;;;;;;;5052594;28;20131;-60
2023/08/07 00:53:37;;;;;;;5.15;2.22;;;;;;;;;;5062163;28;20057;-64
2023/08/07 00:56:04;;;;;;;7.75;1.65;;;;;;;;;;5052835;28;20050;-62
2023/08/07 00:58:31;;;;;;;8.25;2.00;;;;;;;;;;5042182;28;20057;-63
2023/08/07 01:00:57;;;;;;;6.60;1.58;;;;;;;;;;5048245;28;20090;-64
2023/08/07 01:03:24;;;;;;;8.98;3.00;;;;;;;;;;5050973;28;20050;-61
2023/08/07 01:05:50;;;;;;;7.05;2.10;;;;;;;;;;5041995;28;20069;-64
2023/08/07 01:08:17;;;;;;;8.98;2.15;;;;;;;;;;5041963;28;20054;-58
2023/08/07 01:10:49;;;;;;;9.88;2.65;;;;;;;;;;5056548;28;20567;-63
2023/08/07 01:13:36;;;;;;;7.35;2.40;;;;;;;;;;5048489;28;20083;-63
2023/08/07 01:16:12;;;;;;;12.82;2.65;;;;;;;;;;5045991;28;20145;-64
2023/08/07 01:18:39;;;;;;;18.08;3.63;;;;;;;;;;5048625;28;20489;-65
2023/08/07 01:21:06;;;;;;;8.82;2.28;;;;;;;;;;5045786;28;20401;-63
2023/08/07 01:23:32;;;;;;;9.15;2.50;;;;;;;;;;5051123;28;20060;-62
2023/08/07 01:25:59;;;;;;;13.38;3.33;;;;;;;;;;5058409;28;20057;-65
2023/08/07 01:28:28;;;;;;;14.10;2.72;;;;;;;;;;5056520;28;20049;-63
2023/08/07 01:30:58;;;;;;;6.97;2.33;;;;;;;;;;5064813;28;20052;-61
2023/08/07 01:33:34;;;;;;;12.07;2.47;;;;;;;;;;5046265;28;20091;-64
2023/08/07 01:36:03;;;;;;;8.35;2.50;;;;;;;;;;5051089;28;20104;-64
2023/08/07 01:38:29;;;;;;;12.48;2.38;;;;;;;;;;5049874;28;20057;-63
2023/08/07 01:40:56;;;;;;;9.80;2.53;;;;;;;;;;5062345;28;20135;-62
2023/08/07 01:43:23;;;;;;;12.45;2.97;;;;;;;;;;5052536;28;20506;-63
2023/08/07 01:45:49;;;;;;;15.45;3.00;;;;;;;;;;5055514;28;20126;-64
2023/08/07 01:48:16;;;;;;;9.27;2.30;;;;;;;;;;5059367;28;20053;-63
2023/08/07 01:50:42;;;;;;;12.57;2.55;;;;;;;;;;5062595;28;20049;-62
2023/08/07 01:53:09;;;;;;;10.88;2.63;;;;;;;;;;5060242;28;20049;-64
2023/08/07 01:55:35;;;;;;;18.60;2.85;;;;;;;;;;5064100;28;20148;-61
2023/08/07 01:58:02;;;;;;;5.90;2.00;;;;;;;;;;5044939;28;20080;-61
2023/08/07 02:00:29;;;;;;;14.95;3.17;;;;;;;;;;5054614;28;20148;-63
2023/08/07 02:02:55;;;;;;;9.40;3.15;;;;;;;;;;5056715;28;20056;-64
2023/08/07 02:05:22;;;;;;;9.38;2.80;;;;;;;;;;5059099;28;20119;-61
2023/08/07 02:07:48;;;;;;;9.02;2.20;;;;;;;;;;5060905;28;20140;-62
2023/08/07 02:10:14;;;;;;;11.60;3.58;;;;;;;;;;5043997;28;20046;-61
2023/08/07 02:12:41;;;;;;;10.80;2.65;;;;;;;;;;5058029;28;20085;-63
2023/08/07 02:15:07;;;;;;;8.32;2.10;;;;;;;;;;5060208;28;20515;-63
2023/08/07 02:17:35;;;;;;;17.95;2.50;;;;;;;;;;5048444;28;20533;-62
2023/08/07 02:20:02;;;;;;;9.50;2.42;;;;;;;;;;5065292;28;20045;-61
2023/08/07 02:22:28;;;;;;;13.02;3.10;;;;;;;;;;5055877;28;20107;-63
2023/08/07 02:24:55;;;;;;;16.70;3.55;;;;;;;;;;5044445;28;20083;-63
2023/08/07 02:27:21;;;;;;;15.65;2.15;;;;;;;;;;5047979;28;20063;-61
2023/08/07 02:29:48;;;;;;;12.13;2.63;;;;;;;;;;5048679;28;20057;-63
2023/08/07 02:32:14;;;;;;;12.98;3.50;;;;;;;;;;5051728;28;20062;-61
2023/08/07 02:34:40;;;;;;;12.98;2.97;;;;;;;;;;5049130;28;20057;-62
2023/08/07 02:37:07;;;;;;;9.48;2.58;;;;;;;;;;5062504;28;20518;-62
2023/08/07 02:39:33;;;;;;;11.50;3.05;;;;;;;;;;5044599;28;20066;-63
2023/08/07 02:42:00;;;;;;;10.48;2.50;;;;;;;;;;5043961;28;20386;-63
2023/08/07 02:44:26;;;;;;;14.20;2.45;;;;;;;;;;5052738;28;20057;-62
2023/08/07 02:46:53;;;;;;;11.90;2.50;;;;;;;;;;5061443;28;20053;-64
2023/08/07 02:49:19;;;;;;;15.10;2.72;;;;;;;;;;5052539;28;20060;-62
2023/08/07 02:51:46;;;;;;;6.40;1.90;;;;;;;;;;5063494;28;20652;-60
2023/08/07 02:54:12;;;;;;;9.77;2.58;;;;;;;;;;5044238;28;20061;-64
2023/08/07 02:56:39;;;;;;;4.22;2.15;;;;;;;;;;5046437;28;20144;-62
2023/08/07 02:59:06;;;;;;;9.98;2.20;;;;;;;;;;5052322;28;20057;-60
2023/08/07 03:01:32;;;;;;;9.32;1.90;;;;;;;;;;5054875;28;20577;-63
2023/08/07 03:03:59;;;;;;;8.93;2.35;;;;;;;;;;5046674;28;20107;-64
2023/08/07 03:06:25;;;;;;;9.98;2.45;;;;;;;;;;5061498;28;20515;-64
2023/08/07 03:08:51;;;;;;;12.05;2.20;;;;;;;;;;5060648;28;20504;-63
2023/08/07 03:11:18;;;;;;;4.47;1.80;;;;;;;;;;5062421;28;20056;-61
2023/08/07 03:13:44;;;;;;;11.15;2.15;;;;;;;;;;5056814;28;20080;-62
2023/08/07 03:16:11;;;;;;;5.15;2.20;;;;;;;;;;5043164;28;20091;-64
2023/08/07 03:18:37;;;;;;;6.82;1.88;;;;;;;;;;5058366;28;20434;-65
2023/08/07 03:21:04;;;;;;;9.23;2.03;;;;;;;;;;5049764;28;20064;-60
2023/08/07 03:23:30;;;;;;;11.57;2.83;;;;;;;;;;5043179;28;20049;-62
2023/08/07 03:26:04;;;;;;;8.05;2.22;;;;;;;;;;5062887;28;20147;-62
2023/08/07 03:28:46;;;;;;;4.13;1.55;;;;;;;;;;5062091;28;20064;-61
2023/08/07 03:31:13;;;;;;;11.93;1.75;;;;;;;;;;5063208;28;20063;-63
2023/08/07 03:33:39;;;;;;;8.07;2.10;;;;;;;;;;5055447;28;20053;-64
2023/08/07 03:36:06;;;;;;;4.00;1.75;;;;;;;;;;5043273;28;20362;-62
2023/08/07 03:38:32;;;;;;;5.72;2.03;;;;;;;;;;5053975;28;20080;-64
2023/08/07 03:40:59;;;;;;;5.82;1.30;;;;;;;;;;5058761;28;20057;-63
2023/08/07 03:43:25;;;;;;;3.58;1.50;;;;;;;;;;5061035;28;20045;-64
2023/08/07 03:45:56;;;;;;;7.97;2.03;;;;;;;;;;5060955;28;20130;-63
2023/08/07 03:48:27;;;;;;;4.13;1.73;;;;;;;;;;5063004;28;20088;-63
2023/08/07 03:51:01;;;;;;;10.23;1.90;;;;;;;;;;5062528;28;20475;-64
2023/08/07 03:53:27;;;;;;;4.20;1.65;;;;;;;;;;5047691;28;20057;-63
2023/08/07 03:55:53;;;;;;;6.07;1.77;;;;;;;;;;5047764;28;20052;-63
2023/08/07 03:58:20;;;;;;;5.43;1.92;;;;;;;;;;5056766;28;21042;-62
2023/08/07 04:00:46;;;;;;;5.93;2.15;;;;;;;;;;5062787;28;20064;-63
2023/08/07 04:03:13;;;;;;;4.30;2.00;;;;;;;;;;5063354;28;20053;-64
2023/08/07 04:05:39;;;;;;;11.27;2.08;;;;;;;;;;5055679;28;20053;-60
2023/08/07 04:08:06;;;;;;;15.32;2.17;;;;;;;;;;5047635;28;20589;-63
2023/08/07 04:10:32;;;;;;;5.70;1.90;;;;;;;;;;5051733;28;20060;-63
2023/08/07 04:12:58;;;;;;;7.28;2.30;;;;;;;;;;5050027;28;20470;-64
2023/08/07 04:15:25;;;;;;;10.25;2.58;;;;;;;;;;5044213;28;20049;-64
2023/08/07 04:17:52;;;;;;;8.45;2.83;;;;;;;;;;5058752;28;20115;-62
2023/08/07 04:20:20;;;;;;;15.27;2.70;;;;;;;;;;5055113;28;20060;-63
2023/08/07 04:22:46;;;;;;;10.52;2.15;;;;;;;;;;5062291;28;20607;-64
2023/08/07 04:25:13;;;;;;;10.05;2.97;;;;;;;;;;5051425;28;20049;-60
2023/08/07 04:27:39;;;;;;;8.75;2.28;;;;;;;;;;5048475;28;20512;-64
2023/08/07 04:30:06;;;;;;;6.53;2.53;;;;;;;;;;5044310;28;20574;-63
2023/08/07 04:32:33;;;;;;;16.35;3.28;;;;;;;;;;5054237;28;20123;-63
2023/08/07 04:35:00;;;;;;;9.45;2.78;;;;;;;;;;5049601;28;20538;-62
2023/08/07 04:37:26;;;;;;;10.77;3.03;;;;;;;;;;5057788;28;20114;-64
2023/08/07 04:39:54;;;;;;;14.88;2.65;;;;;;;;;;5053700;28;20060;-61
2023/08/07 04:42:20;;;;;;;14.13;2.85;;;;;;;;;;5048570;28;20594;-64
2023/08/07 04:44:47;;;;;;;10.02;2.95;;;;;;;;;;5062144;28;20751;-60
2023/08/07 04:47:13;;;;;;;7.47;2.10;;;;;;;;;;5060157;28;20080;-60
2023/08/07 04:49:40;;;;;;;8.57;2.50;;;;;;;;;;5055404;28;20151;-63
2023/08/07 04:52:06;;;;;;;6.60;2.63;;;;;;;;;;5059432;28;20080;-60
2023/08/07 04:54:51;;;;;;;8.85;2.53;;;;;;;;;;5048970;28;20523;-61
2023/08/07 04:57:17;;;;;;;10.77;3.05;;;;;;;;;;5061634;28;20053;-58
2023/08/07 04:59:43;;;;;;;9.98;3.08;;;;;;;;;;5062823;28;20457;-63
2023/08/07 05:02:10;;;;;;;6.90;2.22;;;;;;;;;;5055806;28;20045;-64
2023/08/07 05:04:37;;;;;;;14.98;3.67;;;;;;;;;;5059815;28;20060;-64
2023/08/07 05:07:03;;;;;;;6.18;2.67;;;;;;;;;;5048763;28;20068;-60
2023/08/07 05:09:30;;;;;;;9.32;2.92;;;;;;;;;;5065769;28;20495;-65
2023/08/07 05:11:56;;;;;;;9.20;2.55;;;;;;;;;;5066256;28;20496;-64
2023/08/07 05:14:23;;;;;;;5.97;2.20;;;;;;;;;;5058852;28;20514;-61
2023/08/07 05:16:49;;;;;;;5.10;1.88;;;;;;;;;;5053906;28;20563;-63
2023/08/07 05:19:16;;;;;;;5.30;2.22;;;;;;;;;;5045434;28;20064;-63
2023/08/07 05:21:42;;;;;;;9.50;2.70;;;;;;;;;;5044986;28;20123;-63
2023/08/07 05:24:09;;;;;;;10.68;3.20;;;;;;;;;;5049518;28;20056;-63
2023/08/07 05:26:35;;;;;;;4.70;1.75;;;;;;;;;;5063788;28;20545;-63
2023/08/07 05:29:02;;;;;;;6.13;2.25;;;;;;;;;;5045670;28;20926;-64
2023/08/07 05:31:30;;;;;;;12.40;2.78;;;;;;;;;;5064610;28;20135;-62
2023/08/07 05:33:56;;;;;;;5.03;2.13;;;;;;;;;;5045377;28;20108;-62
2023/08/07 05:36:23;;;;;;;12.75;2.20;;;;;;;;;;5045057;28;20459;-63
2023/08/07 05:38:49;;;;;;;7.07;2.70;;;;;;;;;;5055368;28;20143;-64
2023/08/07 05:41:16;;;;;;;7.05;2.42;;;;;;;;;;5057846;28;20076;-63
2023/08/07 05:43:43;;;;;;;6.00;2.42;;;;;;;;;;5063148;28;20061;-65
2023/08/07 05:46:09;;;;;;;8.55;3.10;;;;;;;;;;5064007;28;20467;-63
2023/08/07 05:48:35;;;;;;;4.47;2.33;;;;;;;;;;5056188;28;20068;-62
2023/08/07 05:51:02;;;;;;;8.48;3.13;;;;;;;;;;5051694;28;20060;-65
2023/08/07 05:53:28;;;;;;;8.93;2.42;;;;;;;;;;5044615;28;20504;-64
2023/08/07 05:55:55;;;;;;;7.90;3.50;;;;;;;;;;5048712;28;20057;-64
2023/08/07 05:58:22;;;;;;;13.32;2.92;;;;;;;;;;5063667;28;20132;-62
2023/08/07 06:00:49;;;;;;;6.13;2.53;;;;;;;;;;5058232;28;20114;-62
2023/08/07 06:03:15;;;;;;;9.00;2.25;;;;;;;;;;5058292;28;20061;-64
2023/08/07 06:05:41;;;;;;;12.13;2.60;;;;;;;;;;5064083;28;20500;-63
2023/08/07 06:08:08;;;;;;;7.63;2.95;;;;;;;;;;5060906;28;20053;-63
2023/08/07 06:10:34;;;;;;;10.23;2.92;;;;;;;;;;5043658;28;20057;-63
2023/08/07 06:13:01;;;;;;;13.15;3.63;;;;;;;;;;5044584;28;20516;-65
2023/08/07 06:15:29;;;;;;;10.32;3.05;;;;;;;;;;5052284;28;20080;-63
2023/08/07 06:17:55;;;;;;;6.38;2.72;;;;;;;;;;5064294;28;20152;-64
2023/08/07 06:20:22;;;;;;;9.85;2.85;;;;;;;;;;5063880;28;20061;-64
2023/08/07 06:22:48;;;;;;;10.73;3.22;;;;;;;;;;5059917;28;20837;-62
2023/08/07 06:25:14;;;;;;;7.68;2.28;;;;;;;;;;5042315;28;20140;-64
2023/08/07 06:27:41;;;;;;;13.23;2.40;;;;;;;;;;5043755;28;20060;-65
2023/08/07 06:30:07;;;;;;;7.85;2.78;;;;;;;;;;5063532;28;20233;-64
2023/08/07 06:32:34;;;;;;;13.98;3.15;;;;;;;;;;5059272;28;20057;-63
2023/08/07 06:35:01;;;;;;;8.82;3.13;;;;;;;;;;5064272;28;20053;-64
2023/08/07 06:37:28;;;;;;;8.98;2.60;;;;;;;;;;5064612;28;20412;-58
2023/08/07 06:39:54;;;;;;;10.40;3.05;;;;;;;;;;5052361;28;20049;-65
2023/08/07 06:42:21;;;;;;;10.10;2.53;;;;;;;;;;5057423;28;20057;-62
2023/08/07 06:44:47;;;;;;;16.65;2.63;;;;;;;;;;5063686;28;20451;-61
2023/08/07 06:47:14;;;;;;;4.50;2.10;;;;;;;;;;5063796;28;20048;-65
2023/08/07 06:49:40;;;;;;;9.02;3.00;;;;;;;;;;5055998;28;20057;-60
2023/08/07 06:52:07;;;;;;;7.38;2.72;;;;;;;;;;5064081;28;20061;-63
2023/08/07 06:54:33;;;;;;;9.60;2.85;;;;;;;;;;5061781;28;20396;-59
2023/08/07 06:56:59;;;;;;;11.27;2.78;;;;;;;;;;5056060;28;20053;-64
2023/08/07 06:59:26;;;;;;;6.63;2.65;;;;;;;;;;5063406;28;20064;-64
2023/08/07 07:01:52;;;;;;;12.63;2.95;;;;;;;;;;5062231;28;20135;-60
2023/08/07 07:04:19;;;;;;;13.38;3.65;;;;;;;;;;5053718;28;20516;-64
2023/08/07 07:06:45;;;;;;;12.65;2.63;;;;;;;;;;5054357;28;20053;-66
2023/08/07 07:09:15;;;;;;;7.13;2.67;;;;;;;;;;5062722;28;20053;-65
2023/08/07 07:11:43;;;;;;;5.30;2.60;;;;;;;;;;5062922;28;20053;-61
2023/08/07 07:14:10;;;;;;;11.45;2.90;;;;;;;;;;5072936;28;20052;-64
2023/08/07 07:16:37;;;;;;;7.25;3.00;;;;;;;;;;5073561;28;20052;-65
2023/08/07 07:19:04;;;;;;;8.65;2.72;;;;;;;;;;5063535;28;20084;-65
2023/08/07 07:21:31;;;;;;;9.65;2.95;;;;;;;;;;5064770;28;20057;-64
2023/08/07 07:23:57;;;;;;;8.45;2.67;;;;;;;;;;5063246;28;20052;-64
2023/08/07 07:26:23;;;;;;;12.15;3.05;;;;;;;;;;5062536;28;20055;-63
2023/08/07 07:28:51;;;;;;;9.95;2.60;;;;;;;;;;5062918;28;20057;-65
2023/08/07 07:31:17;;;;;;;5.88;2.83;;;;;;;;;;5063243;28;20111;-59
2023/08/07 07:33:44;;;;;;;8.35;2.35;;;;;;;;;;5059916;28;20056;-65
2023/08/07 07:36:17;;;;;;;15.73;5.75;;;;;;;;;;5048207;28;20567;-65
2023/08/07 07:38:47;;;;;;;8.77;2.95;;;;;;;;;;5041954;28;20537;-61
2023/08/07 07:41:14;;;;;;;9.18;3.30;;;;;;;;;;5057501;28;20053;-65
2023/08/07 07:43:41;;;;;;;8.73;2.60;;;;;;;;;;5063257;28;20112;-65
2023/08/07 07:46:08;;;;;;;8.50;2.65;;;;;;;;;;5052675;28;20053;-65
2023/08/07 07:48:34;;;;;;;9.20;2.75;;;;;;;;;;5055618;28;20056;-66
2023/08/07 07:51:02;;;;;;;8.90;3.42;;;;;;;;;;5063188;28;20421;-65
2023/08/07 07:53:28;;;;;;;8.27;2.75;;;;;;;;;;5050752;28;20057;-63
2023/08/07 07:55:55;;;;;;;5.85;2.42;;;;;;;;;;5042757;28;20140;-66
2023/08/07 07:58:22;;;;;;;9.55;2.67;;;;;;;;;;5057040;28;20060;-66
2023/08/07 08:00:48;;;;;;;9.13;2.60;;;;;;;;;;5059456;28;20507;-65
2023/08/07 08:03:15;;;;;;;12.63;3.25;;;;;;;;;;5066217;28;20080;-64
2023/08/07 08:05:41;;;;;;;7.18;2.97;;;;;;;;;;5060122;28;20049;-66
2023/08/07 08:08:08;;;;;;;13.48;3.17;;;;;;;;;;5050487;28;20057;-61
2023/08/07 08:10:34;;;;;;;12.18;3.58;;;;;;;;;;5049897;28;20085;-64
2023/08/07 08:13:01;;;;;;;7.47;2.72;;;;;;;;;;5050465;28;20059;-66
2023/08/07 08:15:27;;;;;;;11.75;3.00;;;;;;;;;;5062236;28;20061;-67
2023/08/07 08:17:54;;;;;;;11.02;3.28;;;;;;;;;;5061616;28;20504;-63
2023/08/07 08:20:20;;;;;;;7.60;2.65;;;;;;;;;;5061281;28;20056;-61
2023/08/07 08:22:47;;;;;;;9.23;2.80;;;;;;;;;;5043127;28;20207;-65
2023/08/07 08:25:14;;;;;;;13.98;3.05;;;;;;;;;;5040731;28;20061;-65
2023/08/07 08:27:41;;;;;;;12.20;3.17;;;;;;;;;;5052249;28;20052;-62
2023/08/07 08:30:08;;;;;;;12.90;3.00;;;;;;;;;;5045824;28;20057;-62
2023/08/07 08:32:35;;;;;;;3.35;2.15;;;;;;;;;;5056376;28;20053;-65
2023/08/07 08:35:01;;;;;;;5.63;2.38;;;;;;;;;;5064513;28;20136;-64
2023/08/07 08:37:29;;;;;;;10.20;3.00;;;;;;;;;;5065699;28;20057;-62
2023/08/07 08:39:55;;;;;;;14.95;3.10;;;;;;;;;;5065208;28;20056;-65
2023/08/07 08:42:22;;;;;;;12.95;4.25;;;;;;;;;;5065120;28;20514;-66
2023/08/07 08:44:51;;;;;;;11.52;3.38;;;;;;;;;;5061801;28;20081;-62
2023/08/07 08:47:18;;;;;;;11.02;2.70;;;;;;;;;;5051856;28;20147;-64
2023/08/07 08:49:54;;;;;;;7.75;2.30;;;;;;;;;;5055099;28;20140;-65
2023/08/07 08:52:20;;;;;;;7.20;2.58;;;;;;;;;;5061215;28;20060;-66
2023/08/07 08:54:48;;;;;;;10.07;2.53;;;;;;;;;;5065208;28;20147;-62
2023/08/07 08:57:14;;;;;;;11.68;2.83;;;;;;;;;;5063551;28;20053;-63
2023/08/07 08:59:41;;;;;;;7.50;2.58;;;;;;;;;;5063060;28;20060;-64
2023/08/07 09:02:08;;;;;;;6.32;1.85;;;;;;;;;;5060479;28;20056;-66
2023/08/07 09:04:34;;;;;;;6.88;2.25;;;;;;;;;;5060326;28;20060;-63
2023/08/07 09:07:01;;;;;;;11.10;3.13;;;;;;;;;;5065111;28;20170;-63
2023/08/07 09:09:28;;;;;;;11.40;2.33;;;;;;;;;;5065510;28;20045;-66
2023/08/07 09:11:57;;;;;;;10.32;2.72;;;;;;;;;;5057534;28;20085;-64
2023/08/07 09:14:26;;;;;;;15.25;3.65;;;;;;;;;;5064767;28;20721;-63
2023/08/07 09:16:53;;;;;;;7.00;2.63;;;;;;;;;;5062233;28;20057;-65
2023/08/07 09:19:20;;;;;;;5.55;2.22;;;;;;;;;;5063996;28;20577;-67
2023/08/07 09:21:47;;;;;;;6.40;2.10;;;;;;;;;;5062728;28;20570;-65
2023/08/07 09:24:16;;;;;;;6.10;2.53;;;;;;;;;;5059321;28;20481;-65
2023/08/07 09:26:44;;;;;;;12.23;2.78;;;;;;;;;;5063255;28;20610;-62
2023/08/07 09:29:11;;;;;;;8.68;2.30;;;;;;;;;;5053186;28;20553;-63
2023/08/07 09:31:37;;;;;;;6.45;2.38;;;;;;;;;;5061112;28;20064;-65
2023/08/07 09:34:04;;;;;;;14.98;3.25;;;;;;;;;;5064052;28;20482;-63
2023/08/07 09:36:31;;;;;;;9.27;2.33;;;;;;;;;;5064160;28;20514;-63
2023/08/07 09:39:02;;;;;;;9.18;2.55;;;;;;;;;;5065349;28;20055;-63
2023/08/07 09:41:29;;;;;;;9.20;2.70;;;;;;;;;;5064373;28;20060;-62
2023/08/07 09:43:55;;;;;;;11.75;2.67;;;;;;;;;;5065505;28;20064;-60
2023/08/07 09:46:22;;;;;;;5.68;2.10;;;;;;;;;;5069360;28;20053;-65
2023/08/07 09:48:48;;;;;;;10.43;2.67;;;;;;;;;;5064779;28;20053;-66
2023/08/07 09:51:15;;;;;;;4.32;2.13;;;;;;;;;;5062671;28;20193;-66
2023/08/07 09:53:41;;;;;;;4.10;1.90;;;;;;;;;;5064446;28;20515;-62
2023/08/07 09:56:08;;;;;;;6.47;2.10;;;;;;;;;;5066706;28;20079;-66
2023/08/07 09:58:35;;;;;;;7.03;2.05;;;;;;;;;;5063547;28;20068;-65
2023/08/07 10:01:04;;;;;;;4.95;2.40;;;;;;;;;;5063598;28;20396;-66
2023/08/07 10:03:31;;;;;;;7.72;1.80;;;;;;;;;;5057284;28;20507;-63
2023/08/07 10:05:58;;;;;;;7.30;2.15;;;;;;;;;;5066021;28;20128;-62
2023/08/07 10:08:25;;;;;;;6.70;3.00;;;;;;;;;;5060623;28;20057;-64
2023/08/07 10:10:51;;;;;;;11.23;2.35;;;;;;;;;;5058448;28;20138;-62
2023/08/07 10:13:17;;;;;;;3.92;1.98;;;;;;;;;;5052629;28;20524;-61
2023/08/07 10:15:49;;;;;;;6.40;2.10;;;;;;;;;;5061318;28;20838;-64
2023/08/07 10:18:15;;;;;;;14.00;2.88;;;;;;;;;;5062552;28;20049;-63
2023/08/07 10:20:43;;;;;;;4.95;1.90;;;;;;;;;;5062397;28;20048;-65
2023/08/07 10:23:11;;;;;;;4.30;2.10;;;;;;;;;;5060743;28;20068;-63
2023/08/07 10:25:39;;;;;;;4.50;2.05;;;;;;;;;;5062908;28;20622;-61
2023/08/07 10:28:08;;;;;;;9.98;2.63;;;;;;;;;;5062409;28;20139;-64
2023/08/07 10:30:34;;;;;;;6.97;2.75;;;;;;;;;;5059382;28;20435;-66
2023/08/07 10:33:02;;;;;;;7.45;2.55;;;;;;;;;;5055792;28;20577;-64
2023/08/07 10:35:32;;;;;;;7.93;2.08;;;;;;;;;;5054486;28;20057;-64
2023/08/07 10:38:05;;;;;;;10.18;2.22;;;;;;;;;;5061093;28;20513;-62
2023/08/07 10:40:32;;;;;;;12.10;2.72;;;;;;;;;;5048129;28;20331;-66
2023/08/07 10:43:11;;;;;;;9.73;2.10;;;;;;;;;;5046823;28;20083;-63
2023/08/07 10:45:38;;;;;;;4.30;1.88;;;;;;;;;;5057100;28;20049;-64
2023/08/07 10:48:04;;;;;;;9.03;2.17;;;;;;;;;;5061759;28;20052;-63
2023/08/07 10:50:32;;;;;;;8.88;2.08;;;;;;;;;;5062956;28;20106;-66
2023/08/07 10:53:04;;;;;;;15.25;3.30;;;;;;;;;;5061014;28;20060;-63
2023/08/07 10:55:42;;;;;;;5.07;1.58;;;;;;;;;;5062163;28;20057;-67
2023/08/07 10:58:20;;;;;;;4.70;1.80;;;;;;;;;;5050281;28;20067;-65
2023/08/07 11:00:47;;;;;;;6.45;1.90;;;;;;;;;;5060794;28;21579;-67
2023/08/07 11:03:25;;;;;;;4.13;2.00;;;;;;;;;;5061955;28;20055;-66
2023/08/07 11:05:52;;;;;;;4.00;1.80;;;;;;;;;;5069230;28;20138;-67
2023/08/07 11:08:23;;;;;;;8.38;2.40;;;;;;;;;;5061534;28;20519;-65
2023/08/07 11:10:50;;;;;;;8.90;2.00;;;;;;;;;;5059478;28;20049;-67
2023/08/07 11:13:17;;;;;;;3.67;1.80;;;;;;;;;;5060145;28;20197;-66
2023/08/07 11:15:45;;;;;;;6.32;2.25;;;;;;;;;;5054278;28;20547;-65
2023/08/07 11:18:12;;;;;;;5.78;1.40;;;;;;;;;;5059923;28;20107;-63
2023/08/07 11:20:41;;;;;;;5.10;1.65;;;;;;;;;;5061294;28;20128;-65
2023/08/07 11:23:07;;;;;;;12.60;2.28;;;;;;;;;;5061350;28;20065;-67
2023/08/07 11:25:34;;;;;;;3.97;1.80;;;;;;;;;;5067257;28;20053;-64
2023/08/07 11:28:00;;;;;;;6.13;2.13;;;;;;;;;;5057964;28;20052;-62
2023/08/07 11:30:28;;;;;;;5.82;1.65;;;;;;;;;;5060924;28;20286;-66
2023/08/07 11:32:55;;;;;;;7.43;2.28;;;;;;;;;;5052680;28;20053;-66
2023/08/07 11:35:22;;;;;;;8.80;1.98;;;;;;;;;;5060467;28;20454;-62
2023/08/07 11:37:53;;;;;;;16.48;2.33;;;;;;;;;;5061982;28;20057;-67
2023/08/07 11:40:20;;;;;;;5.40;2.00;;;;;;;;;;5059547;28;20056;-63
2023/08/07 11:42:47;;;;;;;10.80;2.30;;;;;;;;;;5059952;28;20056;-66
2023/08/07 11:45:13;;;;;;;5.45;1.60;;;;;;;;;;5073170;28;20299;-67
2023/08/07 11:47:39;;;;;;;8.77;1.65;;;;;;;;;;5060464;28;20504;-66
2023/08/07 11:50:06;;;;;;;5.25;1.88;;;;;;;;;;5057737;28;20124;-62
2023/08/07 11:52:33;;;;;;;6.30;2.30;;;;;;;;;;5060795;28;20059;-65
2023/08/07 11:55:02;;;;;;;5.40;2.10;;;;;;;;;;5057099;28;20115;-67
2023/08/07 11:57:29;;;;;;;9.75;2.20;;;;;;;;;;5063275;28;20089;-63
2023/08/07 11:59:55;;;;;;;7.60;1.73;;;;;;;;;;5061102;28;20053;-65
2023/08/07 12:02:23;;;;;;;6.22;1.77;;;;;;;;;;5061757;28;21046;-67
2023/08/07 12:04:50;;;;;;;10.43;2.35;;;;;;;;;;5060128;28;20057;-67
2023/08/07 12:07:25;;;;;;;4.05;1.55;;;;;;;;;;5054854;28;20523;-63
2023/08/07 12:09:54;;;;;;;4.80;1.60;;;;;;;;;;5056190;28;20566;-67
2023/08/07 12:12:21;;;;;;;4.53;1.60;;;;;;;;;;5061586;28;20349;-65
2023/08/07 12:14:52;;;;;;;4.95;1.63;;;;;;;;;;5062077;28;20565;-62
2023/08/07 12:17:18;;;;;;;2.35;1.58;;;;;;;;;;5062459;28;20622;-65
2023/08/07 12:19:46;;;;;;;7.10;1.58;;;;;;;;;;5060197;28;20057;-66
2023/08/07 12:22:13;;;;;;;8.27;1.70;;;;;;;;;;5057679;28;20061;-65
2023/08/07 12:24:40;;;;;;;4.85;1.33;;;;;;;;;;5052489;28;20112;-64
2023/08/07 12:27:07;;;;;;;7.80;2.35;;;;;;;;;;5062021;28;20140;-66
2023/08/07 12:29:33;;;;;;;2.25;1.23;;;;;;;;;;5052593;28;20103;-62
2023/08/07 12:32:02;;;;;;;4.80;1.50;;;;;;;;;;5055339;28;20119;-63
2023/08/07 12:34:29;;;;;;;6.50;1.77;;;;;;;;;;5061771;28;20144;-65
2023/08/07 12:36:58;;;;;;;4.88;1.63;;;;;;;;;;5061793;28;20063;-63
2023/08/07 12:39:25;;;;;;;2.50;1.00;;;;;;;;;;5061996;28;20056;-66
2023/08/07 12:42:11;;;;;;;2.80;1.27;;;;;;;;;;5060231;28;20053;-64
2023/08/07 12:44:43;;;;;;;5.43;1.40;;;;;;;;;;5047811;28;20128;-64
2023/08/07 12:47:09;;;;;;;2.80;1.52;;;;;;;;;;5052469;28;20595;-61
2023/08/07 12:49:36;;;;;;;7.57;1.70;;;;;;;;;;5047755;28;20055;-66
2023/08/07 12:52:03;;;;;;;5.07;1.40;;;;;;;;;;5056889;28;20092;-62
2023/08/07 12:54:30;;;;;;;4.05;1.40;;;;;;;;;;5056669;28;20702;-66
2023/08/07 12:56:57;;;;;;;4.57;1.30;;;;;;;;;;5057094;28;20060;-67
2023/08/07 12:59:23;;;;;;;11.93;1.52;;;;;;;;;;5048505;28;20511;-66
2023/08/07 13:01:52;;;;;;;1.65;1.10;;;;;;;;;;5051772;28;20526;-66
2023/08/07 13:04:19;;;;;;;3.30;1.05;;;;;;;;;;5052585;28;20674;-67
2023/08/07 13:06:45;;;;;;;2.70;1.52;;;;;;;;;;5056802;28;20140;-62
2023/08/07 13:09:12;;;;;;;6.38;1.90;;;;;;;;;;5057143;28;20510;-67
2023/08/07 13:11:38;;;;;;;5.03;2.20;;;;;;;;;;5056394;28;20053;-64
2023/08/07 13:14:05;;;;;;;6.35;1.35;;;;;;;;;;5060359;28;20507;-64
2023/08/07 13:16:32;;;;;;;5.53;1.20;;;;;;;;;;5051575;28;20136;-63
2023/08/07 13:18:59;;;;;;;7.22;1.65;;;;;;;;;;5048443;28;20056;-65
2023/08/07 13:21:26;;;;;;;4.20;1.13;;;;;;;;;;5062571;28;20059;-60
2023/08/07 13:23:53;;;;;;;4.53;1.33;;;;;;;;;;5061331;28;20942;-66
2023/08/07 13:26:19;;;;;;;2.42;1.10;;;;;;;;;;5062750;28;20049;-66
2023/08/07 13:28:45;;;;;;;3.78;1.05;;;;;;;;;;5063986;28;20495;-62
2023/08/07 13:31:12;;;;;;;4.97;1.15;;;;;;;;;;5064528;28;20060;-66
2023/08/07 13:33:38;;;;;;;5.20;1.83;;;;;;;;;;5064720;28;20057;-63
2023/08/07 13:36:05;;;;;;;7.50;1.90;;;;;;;;;;5063957;28;20469;-63
2023/08/07 13:38:31;;;;;;;3.45;1.17;;;;;;;;;;5067259;28;20503;-67
2023/08/07 13:40:58;;;;;;;2.97;1.10;;;;;;;;;;5063892;28;20068;-62
2023/08/07 13:43:24;;;;;;;2.40;1.05;;;;;;;;;;5065736;28;20057;-61
2023/08/07 13:45:51;;;;;;;4.18;1.13;;;;;;;;;;5063863;28;20045;-67
2023/08/07 13:48:17;;;;;;;4.93;1.25;;;;;;;;;;5063174;28;20087;-65
2023/08/07 13:50:44;;;;;;;5.25;1.40;;;;;;;;;;5060595;28;20056;-67
2023/08/07 13:53:10;;;;;;;6.18;1.10;;;;;;;;;;5062934;28;20051;-67
2023/08/07 13:55:42;;;;;;;5.38;1.10;;;;;;;;;;5063110;28;20096;-67
2023/08/07 13:58:09;;;;;;;4.80;1.10;;;;;;;;;;5061109;28;20443;-67
2023/08/07 14:00:36;;;;;;;1.02;0.93;;;;;;;;;;5062434;28;20060;-65
2023/08/07 14:03:03;;;;;;;2.95;1.27;;;;;;;;;;5062957;28;20092;-64
2023/08/07 14:05:30;;;;;;;5.70;1.50;;;;;;;;;;5068104;28;20146;-67
2023/08/07 14:07:57;;;;;;;3.10;1.17;;;;;;;;;;5061864;28;20590;-65
2023/08/07 14:10:24;;;;;;;5.57;1.38;;;;;;;;;;5062313;28;20493;-64
2023/08/07 14:12:50;;;;;;;4.35;1.40;;;;;;;;;;5063432;28;20103;-64
2023/08/07 14:15:16;;;;;;;2.83;1.10;;;;;;;;;;5063228;28;20139;-61
2023/08/07 14:17:43;;;;;;;3.47;1.38;;;;;;;;;;5063524;28;20057;-62
2023/08/07 14:20:10;;;;;;;5.15;1.10;;;;;;;;;;5063205;28;20053;-66
2023/08/07 14:22:38;;;;;;;1.50;0.98;;;;;;;;;;5062185;28;20172;-66
2023/08/07 14:25:04;;;;;;;5.40;1.38;;;;;;;;;;5062461;28;20143;-66
2023/08/07 14:27:31;;;;;;;3.17;1.13;;;;;;;;;;5062718;28;20057;-62
2023/08/07 14:29:58;;;;;;;1.73;1.02;;;;;;;;;;5064835;28;20057;-65
2023/08/07 14:32:24;;;;;;;1.95;0.88;;;;;;;;;;5062202;28;20123;-62
2023/08/07 14:34:51;;;;;;;5.65;1.65;;;;;;;;;;5061443;28;20053;-64
2023/08/07 14:37:18;;;;;;;3.20;1.33;;;;;;;;;;5058451;28;20050;-66
2023/08/07 14:39:44;;;;;;;2.30;1.60;;;;;;;;;;5057076;28;20131;-66